Cape Sakura — 7JHZ — position and weather

sailwx.info

Track history (hours):
 
Tides and Currents Weather Stations Pressure Air Temp Water Temp Dewpoint Dewpoint Depression Visibility Wind Speed Wind Dir Waves Ship Positions

Cape Sakura

Last reported at 2017-Sep-02 11:45 UTC. Time now 2017-Oct-18 15:22 UTC.
Position N 01°10' E 103°42'.
Warning: this ship's position is 46 days out of date.

Length 292 m; draft 10.8 m.

Type: Cargo ship. MMSI: 432786000.

Date/timePositionNaut miles runAvg speedWind from/ knotsBaromVisibWave heightAir tempDewpointWater temp
2017-Sep-02 11:45N 01°10' E 103°42'311.2
2017-Sep-02 11:30N 01°08' E 103°44'612.7
2017-Sep-02 11:00N 01°11' E 103°50'612.4
2017-Sep-02 10:30N 01°14' E 103°55'2 2.6
2017-Sep-02 09:48N 01°16' E 103°56'0 0.1
2017-Sep-02 09:30N 01°16' E 103°56'0 0.0
2017-Sep-02 08:24N 01°16' E 103°56'0 0.0
2017-Sep-02 08:00N 01°16' E 103°56'0 0.1
2017-Sep-02 07:12N 01°16' E 103°56'0 0.2
2017-Sep-02 07:00N 01°16' E 103°56'0 0.0
2017-Sep-02 06:30N 01°16' E 103°56'0 0.0
2017-Sep-02 06:00N 01°16' E 103°56'0 0.0
2017-Sep-02 05:24N 01°16' E 103°56'0 0.0
2017-Sep-01 07:03N 01°16' E 103°56'0 0.2
2017-Sep-01 06:42N 01°16' E 103°56'0 0.2
2017-Sep-01 06:24N 01°16' E 103°56'0 0.0
2017-Sep-01 05:48N 01°16' E 103°56'0 0.2
2017-Sep-01 05:30N 01°16' E 103°56'0 0.3
2017-Sep-01 05:00N 01°16' E 103°56'0 0.1
2017-Sep-01 03:54N 01°16' E 103°56'0 0.0
2017-Sep-01 03:30N 01°16' E 103°56'0 0.2
2017-Sep-01 03:00N 01°16' E 103°56'1 1.6
2017-Sep-01 02:29N 01°15' E 103°57'3 5.3
2017-Sep-01 02:00N 01°16' E 103°59'  
2017-Aug-24 06:37N 35°33' E 121°05'414.6
2017-Aug-24 06:22N 35°35' E 121°01'713.5
2017-Aug-24 05:50N 35°40' E 120°54'814.7
2017-Aug-24 05:18N 35°47' E 120°51'714.4
2017-Aug-24 04:48N 35°54' E 120°48'310.5
2017-Aug-24 04:30N 35°56' E 120°45'612.8
2017-Aug-24 04:01N 35°58' E 120°38'612.5
2017-Aug-24 03:30N 35°59' E 120°30'611.8
2017-Aug-24 03:00N 36°01' E 120°23'5 9.7
2017-Aug-24 02:30N 36°02' E 120°17'3 0.2
2017-Aug-23 13:41N 36°02' E 120°14'0 0.0
2017-Aug-23 13:26N 36°02' E 120°14'0 0.1
2017-Aug-23 12:52N 36°02' E 120°14'0 0.1
2017-Aug-23 12:05N 36°02' E 120°14'0 0.3
2017-Aug-23 11:56N 36°02' E 120°14'  
Track history (hours):
 
Tides and Currents Weather Stations Pressure Air Temp Water Temp Dewpoint Dewpoint Depression Visibility Wind Speed Wind Dir Waves Ship Positions

Cape Sakura

Last reported at 2017-Sep-02 11:45 UTC. Time now 2017-Oct-18 15:22 UTC.
Position N 01°10' E 103°42'.
Warning: this ship's position is 46 days out of date.

Length 292 m; draft 10.8 m.

Type: Cargo ship. MMSI: 432786000.

Date/timePositionNaut miles runAvg speedWind from/ knotsBaromVisibWave heightAir tempDewpointWater temp
2017-Sep-02 11:45N 01°10' E 103°42'311.2
2017-Sep-02 11:30N 01°08' E 103°44'612.7
2017-Sep-02 11:00N 01°11' E 103°50'612.4
2017-Sep-02 10:30N 01°14' E 103°55'2 2.6
2017-Sep-02 09:48N 01°16' E 103°56'0 0.1
2017-Sep-02 09:30N 01°16' E 103°56'0 0.0
2017-Sep-02 08:24N 01°16' E 103°56'0 0.0
2017-Sep-02 08:00N 01°16' E 103°56'0 0.1
2017-Sep-02 07:12N 01°16' E 103°56'0 0.2
2017-Sep-02 07:00N 01°16' E 103°56'0 0.0
2017-Sep-02 06:30N 01°16' E 103°56'0 0.0
2017-Sep-02 06:00N 01°16' E 103°56'0 0.0
2017-Sep-02 05:24N 01°16' E 103°56'0 0.0
2017-Sep-01 07:03N 01°16' E 103°56'0 0.2
2017-Sep-01 06:42N 01°16' E 103°56'0 0.2
2017-Sep-01 06:24N 01°16' E 103°56'0 0.0
2017-Sep-01 05:48N 01°16' E 103°56'0 0.2
2017-Sep-01 05:30N 01°16' E 103°56'0 0.3
2017-Sep-01 05:00N 01°16' E 103°56'0 0.1
2017-Sep-01 03:54N 01°16' E 103°56'0 0.0
2017-Sep-01 03:30N 01°16' E 103°56'0 0.2
2017-Sep-01 03:00N 01°16' E 103°56'1 1.6
2017-Sep-01 02:29N 01°15' E 103°57'3 5.3
2017-Sep-01 02:00N 01°16' E 103°59'  
2017-Aug-24 06:37N 35°33' E 121°05'414.6
2017-Aug-24 06:22N 35°35' E 121°01'713.5
2017-Aug-24 05:50N 35°40' E 120°54'814.7
2017-Aug-24 05:18N 35°47' E 120°51'714.4
2017-Aug-24 04:48N 35°54' E 120°48'310.5
2017-Aug-24 04:30N 35°56' E 120°45'612.8
2017-Aug-24 04:01N 35°58' E 120°38'612.5
2017-Aug-24 03:30N 35°59' E 120°30'611.8
2017-Aug-24 03:00N 36°01' E 120°23'5 9.7
2017-Aug-24 02:30N 36°02' E 120°17'3 0.2
2017-Aug-23 13:41N 36°02' E 120°14'0 0.0
2017-Aug-23 13:26N 36°02' E 120°14'0 0.1
2017-Aug-23 12:52N 36°02' E 120°14'0 0.1
2017-Aug-23 12:05N 36°02' E 120°14'0 0.3
2017-Aug-23 11:56N 36°02' E 120°14'  

Dump ship's entire track history